AirNav   Air Wisconsin pilot careers
 
 1433 users online  

NE01 Schutte Airport
Guide Rock, Nebraska, USA


FAA INFORMATION EFFECTIVE 01 FEBRUARY 2018

Location

FAA Identifier: NE01
Lat/Long: 40-11-41.0460N / 098-21-07.1890W
40-11.684100N / 098-21.119817W
40.1947350 / -98.3519969
(estimated)
Elevation: 1876 ft. / 571.8 m (surveyed)
Variation: 07E (1985)
From city: 8 miles NW of GUIDE ROCK, NE
Time zone: UTC -6 (UTC -5 during Daylight Saving Time)
Zip code: 68942

Airport Operations

Airport use: Private use. Permission required prior to landing
Activation date: 11/1954
Control tower: no
ARTCC: MINNEAPOLIS CENTER
FSS: COLUMBUS FLIGHT SERVICE STATION
Attendance: UNATNDD
Wind indicator: no
Segmented circle: no

Nearby radio navigation aids

VOR radial/distance  VOR name  Freq  Var
TKOr340/23.7MANKATO VORTAC109.8010E
HSIr165/24.8HASTINGS VOR/DME108.8007E

Airport Services

Airframe service: NONE
Powerplant service: NONE

Runway Information

Runway NW/SE

Dimensions: 2500 x 125 ft. / 762 x 38 m
Surface: turf
RUNWAY NW  RUNWAY SE
Traffic pattern: leftleft

Airport Ownership and Management from official FAA records

Ownership: Privately-owned
Owner: MRS ALFRED SCHUTTE
GUIDE ROCK, NE 68942
Phone (402) 756-3462
Manager: RON SCHUTTE
1417 ROAD 2100
GUIDE ROCK, NE 68942
Phone 402-756-3462

Instrument Procedures

There are no published instrument procedures at NE01.

Some nearby airports with instrument procedures:

7V7 - Red Cloud Municipal Airport (11 nm SW)
12K - Superior Municipal Airport (16 nm SE)
KHSI - Hastings Municipal Airport (25 nm N)
08K - Harvard State Airport (30 nm NE)
K82 - Smith Center Municipal Airport (33 nm SW)
 
Loc | Ops | Rwys | IFR | FBO | Links
Com | Nav | Svcs | Stats | Notes

Silverhawk Aviation, Inc.
AirBoss

 
Area around NE01 (Schutte Airport)
 
Road maps at: MapQuest Bing Google
 
Aerial photo
No photo
 
Sectional chart

 
Airport distance calculator
Flying to Schutte Airport? Find the distance to fly.

From to NE01

Sunrise and sunset
Times for 19-Feb-2018
 Local
(UTC-6)
 Zulu
(UTC)
Morning civil twilight06:5512:55
Sunrise07:2213:22
Sunset18:1200:12
Evening civil twilight18:4000:40

Current date and time
Zulu (UTC)  19-Feb-2018 18:46:36
Local (UTC-6)  19-Feb-2018 12:46:36
 
METAR
KHSI 
25nm N 
191753Z AUTO 35015KT 5SM -SN BR OVC011 M08/M11 A2987 RMK AO2 PK WND 36026/1656 SLP140 P0000 60000 I6001 T10831106 11083 21094 53012
KHJH 
35nm E 
191835Z AUTO 36010G15KT 10SM OVC010 M06/M07 A2986 RMK AO2 T10561074
KEAR 
43nm NW 
191756Z AUTO 36012KT 6SM -SN BR OVC012 M09/M11 A2987 RMK AO2 SLP141 P0000 60000 T10891111 11089 21100 53003 FZRANO
KAUH 
44nm N 
191835Z AUTO 36012KT 7SM -SN OVC010 M08/M10 A2986 RMK AO2 T10811101
KGRI 
46nm N 
191753Z 35014KT 4SM -SN BR OVC011 M08/M11 A2987 RMK AO2 SLP144 P0000 60000 T10831106 11083 21089 51011
KHDE 
47nm W 
191835Z AUTO 36011KT 4SM -SN OVC012 M08/M10 A2984 RMK AO2 T10851100
TAF
KEAR 
43nm NW 
191725Z 1918/2018 01013KT P6SM OVC015 TEMPO 1918/1920 4SM -SN BR FM192300 03012KT P6SM BKN015 FM200300 03012KT P6SM OVC020 FM200900 35015G23KT P6SM OVC015 FM201400 34013KT P6SM BKN040 FM201700 34013KT P6SM SCT100
KGRI 
46nm N 
191725Z 1918/2018 36015KT P6SM OVC015 TEMPO 1918/1920 4SM -SN BR FM192000 01012KT P6SM OVC015 FM200300 02010KT P6SM OVC015 FM200800 35013G21KT P6SM OVC015 FM201300 34013KT P6SM BKN035 FM201700 34014G21KT P6SM SCT110
NOTAMs
Click for the latest NOTAMs
NOTAMs are issued by the DoD/FAA and will open in a separate window not controlled by AirNav.

 

 
 

Would you like to see your business listed on this page?

 If your business provides an interesting product or service to pilots, flight crews, aircraft, or users of the Schutte Airport, you should consider listing it here.  To start the listing process, click on the button below
 
Add a business
 

Other Pages about Schutte Airport

Update a link
 
Copyright © AirNav, LLC. All rights reserved. Privacy Policy  Contact